Corsicana, TX (75110)

3:06 PM CST on February 19, 2017 (GMT -0600)
Bowie - Collins School area | | Change Station

Elev 433 ft 32.11 °N, 96.49 °W | Updated 6 seconds ago

Overcast
Overcast
75.7 °F
Feels Like 77 °F
N
4.5
Wind Variable Wind from ESE
Gusts 7.4 mph

Today
High -- | Low -- °F
--% Chance of Precip.
Yesterday
High -- | Low -- °F
Precip. -- in
Pressure 29.88 in
Visibility 7.0 miles
Clouds Few 2300 ft
Mostly Cloudy 3300 ft
Overcast 4600 ft
Heat Index 77 °F
Dew Point 68 °F
Humidity 78%
Rainfall 0.00 in
Snow Depth Not available.
7:03 AM 6:15 PM
Last Quarter, 40% visible
METAR KCRS 192053Z AUTO 14017G21KT 7SM FEW023 BKN033 OVC046 24/19 A2989 RMK AO2 SLP116 T02390189 58006
Pressure 29.88 in
Visibility 7.0 miles
Clouds Few 2300 ft
Mostly Cloudy 3300 ft
Overcast 4600 ft
Heat Index 77 °F
Dew Point 68 °F
Humidity 78%
Rainfall 0.00 in
Snow Depth Not available.
7:03 AM 6:15 PM
Last Quarter, 40% visible
METAR KCRS 192053Z AUTO 14017G21KT 7SM FEW023 BKN033 OVC046 24/19 A2989 RMK AO2 SLP116 T02390189 58006

Get Your Daily Forecast Email!

Thanks for signing up!

Be on the lookout for a verification email in your inbox.

You'll start receiving the daily forecast at 8 AM.

×

10-Day Weather Forecast

Almanac

Astronomy

Feb. 19, 2017 Rise Set
Actual Time
Civil Twilight
Nautical Twilight
Astronomical Twilight
Moon
Length of Visible Light
Length of Day
Tomorrow will be .
, % of the Moon is Illuminated

Today's Extremes

State Highs State Lows

Community

WunderPhotos

Upload Photos

1,962,540 photos uploaded!

WunderBlog® & News

Nearby

Air Quality

  Air Quality AQ Index Pollutant
Not available.

Snow Depth

Station Depth Elevation

Earthquake Activity

City Distance Mag. Time & Date
Minimum magnitude displayed is 2.5.

Coastal Water Temperatures

Place Temperature

Stations

Nearby Weather Stations

Station Location Temp. Windchill Dew Point Humidity Wind Precip. Elev Updated Type
                   

Watches & Warnings

There are currently no watches in effect.